Date,TemperatureHighF,TemperatureAvgF,TemperatureLowF,DewpointHighF,DewpointAvgF,DewpointLowF,HumidityHigh,HumidityAvg,HumidityLow,PressureMaxIn,PressureMinIn,WindSpeedMaxMPH,WindSpeedAvgMPH,GustSpeedMaxMPH,PrecipitationSumIn
2013-1-1,29.1,21.2,7.2,22.8,13.6,5.4,95,73,53,29.33,29.18,3,0,7,0.00
2013-1-2,26.6,18.9,7.5,21.6,15.6,6.4,100,87,70,29.36,29.23,4,0,8,0.00
2013-1-3,29.5,24.3,17.4,28.3,20.4,10.7,96,85,72,29.34,29.21,4,1,7,0.00
2013-1-4,35.2,28.4,23.5,26.2,22.9,20.7,92,80,63,29.34,29.15,6,2,13,0.00
2013-1-5,38.1,26.4,14.7,31.2,24.1,14.5,100,92,70,29.45,29.19,1,0,6,0.00
2013-1-6,37.4,33.9,31.5,37.0,32.9,29.2,100,96,83,29.43,29.07,5,1,11,0.00
2013-1-7,40.8,32.3,28.2,31.5,28.1,25.7,100,85,64,29.54,29.32,6,1,11,0.00
2013-1-8,38.8,29.7,23.0,31.0,26.7,22.6,100,89,71,29.42,29.32,2,0,8,0.00
2013-1-9,49.5,36.4,20.7,37.6,29.3,20.4,100,78,48,29.59,29.19,8,2,13,0.00
2013-1-10,42.4,32.2,23.2,35.2,29.6,22.9,100,91,66,29.76,29.38,1,0,4,0.00
2013-1-11,55.2,43.0,35.1,54.9,42.7,34.8,99,99,99,29.38,28.94,2,0,8,0.00
2013-1-12,61.9,48.5,38.8,57.5,47.3,38.4,100,96,79,29.12,29.00,2,0,6,0.00
2013-1-13,49.3,40.1,32.5,49.0,39.8,32.1,99,99,99,29.18,28.88,6,0,15,0.01
2013-1-14,32.7,25.7,17.2,32.1,20.8,16.5,100,82,58,29.60,29.18,0,0,0,0.00
2013-1-15,36.9,22.8,14.0,23.4,18.5,13.8,100,85,51,29.61,29.31,0,0,3,0.00
2013-1-16,43.0,29.8,19.4,30.4,21.6,16.3,100,76,38,29.32,28.96,5,1,11,0.00
2013-1-17,38.7,29.5,17.2,31.2,21.6,5.0,100,73,51,29.48,29.10,7,2,15,0.00
2013-1-18,35.8,24.2,11.5,25.0,15.7,6.1,96,71,53,29.60,29.12,7,1,15,0.00
2013-1-19,47.1,40.5,33.4,37.8,31.8,24.8,82,71,61,29.12,28.71,7,2,14,0.00
2013-1-20,44.4,23.7,15.8,37.7,10.5,3.0,79,57,44,29.34,28.69,13,5,18,0.00
2013-1-21,20.8,13.5,5.2,14.1,4.3,-5.3,88,66,48,29.31,29.09,7,2,17,0.00
2013-1-22,14.5,4.7,-1.3,0.8,-5.2,-13.1,82,63,42,29.43,29.24,7,2,13,0.00
2013-1-23,18.9,10.2,-0.4,12.8,4.6,-4.4,91,78,58,29.44,29.23,3,0,8,0.00
2013-1-24,24.6,14.0,9.1,12.4,6.0,0.7,93,72,43,29.73,29.26,5,1,11,0.00
2013-1-25,25.2,17.2,10.9,18.7,12.7,1.6,97,82,65,29.67,29.18,0,0,2,0.00
2013-1-26,33.3,21.0,11.7,21.2,16.8,10.5,100,85,57,29.61,29.21,5,1,9,0.00
2013-1-27,32.0,20.5,8.1,28.2,16.7,7.4,100,87,59,29.65,29.32,2,0,7,0.00
2013-1-28,42.3,35.8,28.4,42.0,35.5,28.2,99,99,99,29.35,29.01,2,0,4,0.00
2013-1-29,53.8,42.4,32.5,53.5,42.1,32.3,99,99,99,29.20,28.66,1,0,8,0.00
2013-1-30,58.8,50.5,34.5,58.5,50.2,34.1,99,99,99,28.66,28.27,6,1,12,0.00
2013-1-31,34.3,23.7,17.2,34.1,17.7,11.3,100,78,60,29.03,28.37,7,0,11,0.00
2013-2-1,22.8,16.6,10.8,13.4,9.3,3.0,88,73,53,29.41,29.02,0,0,0,0.00
2013-2-2,26.1,16.4,6.1,20.5,13.3,4.1,96,87,74,29.37,29.10,0,0,0,0.00
2013-2-3,24.6,14.7,6.8,19.0,9.6,4.3,93,80,59,29.18,29.00,0,0,0,0.00
2013-2-4,24.1,16.8,6.1,19.2,14.2,3.9,100,89,75,29.19,29.05,0,0,0,0.00
2013-2-5,31.6,22.1,12.0,27.1,19.3,11.8,100,90,57,29.12,28.97,2,0,6,0.00
2013-2-6,37.2,22.3,7.3,27.1,17.2,7.1,100,83,49,29.47,29.10,3,0,4,0.00
2013-2-7,38.7,30.1,24.1,29.5,25.3,20.4,96,83,68,29.46,29.08,3,0,11,0.00
2013-2-8,30.2,26.9,23.4,28.5,25.5,20.6,100,94,84,29.49,28.95,12,2,13,0.00
2013-2-9,40.3,21.7,7.7,26.0,17.1,7.5,100,85,49,29.61,29.46,1,0,3,0.00
2013-2-10,41.7,25.4,8.8,34.5,22.8,8.6,100,91,63,29.47,28.88,2,0,9,0.00
2013-2-11,41.7,37.0,32.7,41.3,33.6,28.6,99,88,73,29.01,28.71,9,4,19,0.00
2013-2-12,34.2,31.7,28.6,29.9,26.3,22.9,89,80,73,29.21,29.01,5,2,10,0.00
2013-2-13,45.9,31.4,26.1,28.9,25.4,22.7,100,80,49,29.10,28.90,3,0,5,0.00
2013-2-14,39.2,33.2,24.4,38.4,32.2,24.0,100,96,86,28.98,28.85,7,1,16,0.00
2013-2-15,35.2,28.6,23.5,32.6,19.5,13.6,90,70,49,29.28,28.97,6,2,11,0.00
2013-2-16,31.5,21.1,14.4,21.7,16.4,12.1,97,83,49,29.26,29.13,3,0,7,0.00
2013-2-17,27.5,16.5,7.7,15.5,8.4,4.4,97,72,45,29.39,29.19,6,1,10,0.00
2013-2-18,43.5,28.2,10.8,38.0,22.1,7.2,96,79,58,29.39,28.79,2,0,7,0.00
2013-2-19,43.7,30.6,19.2,41.3,26.8,11.7,100,86,69,29.06,28.58,7,1,14,0.00
2013-2-20,23.7,20.6,16.7,16.7,12.6,9.0,90,71,61,29.38,29.06,7,3,20,0.00
2013-2-21,27.1,20.3,17.4,20.8,14.8,11.2,93,79,58,29.56,29.37,6,1,10,0.00
2013-2-22,33.8,27.6,21.2,33.6,26.9,19.0,100,97,91,29.46,29.05,6,1,15,0.00
2013-2-23,37.4,32.1,26.2,33.4,26.9,23.2,99,82,64,29.08,29.02,3,1,8,0.00
2013-2-24,37.8,28.7,19.8,30.5,25.2,19.4,100,87,71,29.31,29.05,6,1,10,0.00
2013-2-25,45.9,28.1,14.5,32.2,22.5,14.3,100,82,49,29.40,29.28,2,0,5,0.00
2013-2-26,39.2,31.1,23.2,34.5,28.6,22.8,100,91,68,29.31,28.71,10,2,18,0.00
2013-2-27,54.1,35.0,32.9,48.6,34.7,32.7,99,99,81,30.16,28.64,0,0,4,0.02
2013-2-28,38.1,33.5,29.8,36.8,32.4,27.7,100,96,86,30.30,29.88,7,2,12,0.00
2013-3-1,29.8,27.1,25.3,28.5,23.9,21.6,96,88,77,30.45,30.29,8,3,12,0.00
2013-3-2,30.4,25.8,23.4,24.3,22.0,18.8,92,86,75,30.42,30.38,5,1,8,0.00
2013-3-3,34.9,23.3,17.1,20.7,17.6,14.9,97,79,53,30.39,30.33,5,1,10,0.00
2013-3-4,42.1,24.9,12.2,20.9,16.4,11.8,100,74,39,30.49,30.38,4,0,7,0.00
2013-3-5,41.2,27.8,16.5,28.5,23.4,15.8,100,85,57,30.49,30.20,10,2,14,0.00
2013-3-6,46.4,34.4,27.0,35.1,30.4,24.8,100,86,62,30.55,30.21,9,2,12,0.00
2013-3-7,37.8,33.1,25.5,35.7,30.0,22.5,100,89,75,30.74,30.53,3,0,6,0.00
2013-3-8,51.1,33.0,21.2,32.8,27.0,20.4,100,81,49,30.84,30.73,4,0,7,0.00
2013-3-9,49.5,34.6,23.4,38.9,30.6,23.1,99,87,60,30.78,30.41,2,0,7,0.00
2013-3-10,66.4,47.9,32.5,49.5,41.1,32.3,100,81,49,30.42,30.16,2,0,7,0.00
2013-3-11,54.0,48.1,38.7,51.7,47.0,36.5,100,96,82,30.18,29.83,5,1,11,0.01
2013-3-12,40.5,36.0,29.8,36.8,32.6,26.5,100,88,73,30.26,30.02,6,2,11,0.00
2013-3-13,37.2,30.2,26.6,30.3,22.6,14.8,100,75,50,30.51,30.19,9,4,16,0.00
2013-3-14,45.9,30.9,20.1,24.2,18.8,13.8,88,63,35,30.59,30.41,5,2,11,0.00
2013-3-15,40.6,35.0,26.4,37.4,30.8,20.6,100,85,61,30.41,30.20,4,1,7,0.00
2013-3-16,34.3,29.0,23.9,30.1,27.3,23.1,100,94,78,30.38,30.13,2,0,4,0.00
2013-3-17,35.6,26.7,19.6,27.3,18.7,14.2,100,73,49,30.62,30.37,8,2,13,0.00
2013-3-18,34.9,28.8,19.4,34.6,26.6,15.7,100,92,80,30.56,29.89,7,1,20,0.00
2013-3-19,34.9,28.4,24.6,34.6,24.1,18.5,99,84,68,30.26,29.94,2,0,6,0.00
2013-3-20,36.3,25.4,18.0,20.9,16.6,11.8,85,70,47,30.27,30.22,6,2,11,0.00
2013-3-21,35.6,25.3,16.0,27.5,20.3,11.7,93,81,66,30.26,30.17,8,2,14,0.00
2013-3-22,43.7,31.1,25.5,26.8,22.2,18.7,91,70,50,30.37,30.24,5,2,8,0.00
2013-3-23,46.6,32.9,25.0,29.7,25.5,23.5,99,76,51,30.45,30.35,4,0,8,0.00
2013-3-24,39.4,29.9,22.1,32.1,25.9,21.2,100,86,54,30.42,30.00,12,3,17,0.00
2013-3-25,41.4,35.3,31.5,31.5,28.9,26.4,88,78,65,30.24,29.93,11,6,20,0.00
2013-3-26,48.4,38.7,33.8,34.1,31.3,28.8,89,76,49,30.44,30.23,6,2,11,0.00
2013-3-27,50.4,39.7,30.4,31.4,28.6,25.5,87,67,45,30.52,30.42,6,3,16,0.00
2013-3-28,57.6,43.9,33.8,33.9,29.2,25.8,78,58,38,30.60,30.51,5,1,10,0.00
2013-3-29,61.7,42.9,30.0,27.9,24.8,20.6,79,54,26,30.62,30.53,4,1,7,0.00
2013-3-30,64.0,43.8,25.9,35.6,26.7,16.7,100,61,21,30.56,30.28,3,0,8,0.00
2013-3-31,64.8,46.2,33.6,47.9,37.5,28.1,100,75,38,30.29,29.95,6,1,10,0.00
2013-4-1,42.6,34.0,27.0,40.6,19.6,11.6,95,58,34,30.43,30.01,8,4,14,0.00
2013-4-2,45.5,32.3,21.9,21.5,15.2,10.5,88,53,30,30.58,30.42,7,2,14,0.00
2013-4-3,48.7,32.6,22.6,19.1,14.5,10.1,76,51,26,30.76,30.57,7,1,11,0.00
2013-4-4,63.0,40.9,22.5,27.3,20.0,14.7,93,52,20,30.71,30.28,6,1,11,0.00
2013-4-5,53.1,40.7,27.0,35.2,26.1,20.3,100,60,33,30.58,30.28,6,2,11,0.00
2013-4-6,51.4,37.5,25.0,32.9,24.8,19.8,89,63,39,30.62,30.15,3,0,9,0.00
2013-4-7,59.2,49.2,34.9,49.8,39.1,31.6,94,69,47,30.39,29.95,8,2,16,0.00
2013-4-8,60.8,42.9,28.2,56.4,41.3,28.0,100,95,72,30.41,30.06,7,1,11,0.00
2013-4-9,50.7,44.6,40.3,48.5,44.2,40.0,100,99,86,30.46,30.24,7,1,11,0.01
2013-4-10,43.7,41.0,38.3,43.4,40.7,38.0,99,99,99,30.41,30.18,6,1,14,0.01
2013-4-11,39.6,37.0,35.2,39.3,36.8,35.0,99,99,99,30.35,30.01,8,2,14,0.00
2013-4-12,45.9,39.2,35.2,45.6,38.2,35.0,100,96,83,30.11,29.88,5,1,9,0.00
2013-4-13,41.4,41.3,41.2,41.1,41.0,40.9,99,99,99,30.12,30.10,1,1,6,0.00
2013-4-14,50.2,40.5,30.0,38.6,34.1,29.8,99,79,57,30.46,30.33,2,0,2,0.00
2013-4-15,72.7,53.4,32.9,59.1,47.7,32.7,99,83,60,30.33,30.24,7,1,7,0.01
2013-4-16,67.5,53.3,44.4,59.3,46.1,38.9,100,79,43,30.60,30.22,9,1,9,0.00
2013-4-17,63.3,47.5,37.9,48.8,39.2,33.2,99,75,47,30.60,29.49,9,1,13,0.00
2013-4-18,78.3,58.1,44.1,71.0,56.8,43.6,99,96,71,29.74,29.25,6,1,15,0.00
2013-4-19,59.5,47.6,38.5,59.3,43.6,32.4,99,87,67,29.42,28.99,11,4,17,0.00
2013-4-20,44.1,35.8,27.9,35.8,25.8,18.2,100,69,49,30.11,29.40,8,3,14,0.00
2013-4-21,54.9,37.4,23.4,35.4,27.5,21.1,100,72,39,30.31,30.11,6,0,14,0.00
2013-4-22,68.2,47.0,29.7,41.4,34.1,27.4,100,68,29,30.16,29.88,4,0,10,0.13
2013-4-23,74.5,54.9,36.3,59.0,45.6,36.1,100,77,42,29.89,29.49,4,0,12,0.01
2013-4-24,55.6,41.2,35.6,55.1,41.0,35.3,100,99,97,29.79,29.41,4,1,13,0.28
2013-4-25,56.7,41.6,30.7,48.8,35.9,29.7,100,83,45,30.02,29.76,8,2,14,0.04
2013-4-26,66.0,47.1,29.3,42.6,36.2,29.1,99,72,37,30.14,30.01,3,0,9,0.00
2013-4-27,77.0,54.2,33.8,48.5,40.5,33.6,100,67,34,30.05,29.80,3,0,8,0.00
2013-4-28,59.9,50.6,43.2,54.4,47.9,38.9,100,91,71,29.80,29.53,1,0,8,0.24
2013-4-29,76.3,59.9,52.9,62.5,56.7,52.6,99,91,57,29.63,29.51,2,0,6,0.01
2013-4-30,77.9,61.3,48.2,66.0,57.8,47.9,100,90,61,29.79,29.62,3,0,11,0.08
2013-5-1,86.9,65.5,47.3,67.7,58.4,47.0,99,81,50,29.94,29.76,2,0,8,0.00
2013-5-2,83.7,65.6,49.3,63.3,54.8,49.0,100,72,44,29.96,29.83,3,0,11,0.00
2013-5-3,83.3,65.1,51.1,59.0,49.9,39.6,97,63,26,29.84,29.77,5,1,17,0.00
2013-5-4,77.5,62.7,50.7,54.5,46.7,39.5,100,60,32,29.85,29.76,3,0,12,0.00
2013-5-5,79.0,61.1,44.4,52.0,44.9,38.1,100,62,30,29.82,29.71,8,1,12,0.00
2013-5-6,82.8,61.0,43.5,59.1,48.1,42.4,100,67,41,29.77,29.67,3,0,11,0.00
2013-5-7,84.4,64.5,47.5,61.1,52.0,42.1,89,67,42,29.77,29.67,4,0,10,0.00
2013-5-8,85.5,64.8,50.5,64.8,54.6,46.3,93,72,43,29.70,29.61,4,0,12,0.02
2013-5-9,84.0,66.4,50.0,59.2,52.7,47.7,100,68,34,29.65,29.58,1,0,8,0.00
2013-5-10,71.1,57.3,42.3,66.4,54.8,42.0,100,92,61,29.59,29.43,4,0,9,0.51
2013-5-11,70.5,49.3,39.2,52.4,45.2,36.4,100,88,52,29.57,29.40,6,1,14,0.01
2013-5-12,52.5,42.8,35.6,38.1,33.1,26.2,96,71,48,29.76,29.52,7,2,13,0.00
2013-5-13,63.9,43.6,30.0,34.6,28.7,25.1,90,60,29,29.84,29.75,3,0,11,0.00
2013-5-14,69.4,52.9,39.0,51.8,44.5,34.6,100,76,50,29.79,29.43,3,0,12,0.00
2013-5-15,89.2,69.5,50.7,67.9,55.4,49.6,100,68,37,29.47,29.25,6,1,13,0.01
2013-5-16,86.4,66.3,50.9,56.6,49.8,40.9,100,60,33,29.73,29.45,3,0,7,0.00
2013-5-17,72.7,58.0,45.5,53.0,46.7,42.2,95,69,46,29.87,29.73,1,0,6,0.00
2013-5-18,88.3,65.9,53.1,57.9,51.0,46.2,88,63,31,29.86,29.73,1,0,8,0.00
2013-5-19,93.4,70.4,52.3,74.0,63.2,51.4,100,81,52,29.75,29.58,2,0,6,0.00
2013-5-20,97.0,75.8,59.0,79.2,69.2,58.7,100,83,53,29.65,29.45,2,0,8,0.00
2013-5-21,91.9,75.7,63.5,79.1,69.1,63.2,100,83,52,29.52,29.39,2,0,9,0.06
2013-5-22,86.0,71.1,63.7,75.6,68.1,63.4,100,91,59,29.44,29.30,4,0,10,0.01
2013-5-23,65.8,53.0,42.1,65.5,52.7,41.4,100,99,93,29.81,29.35,2,0,6,0.12
2013-5-24,63.7,46.8,38.1,43.0,39.1,34.8,100,78,45,30.03,29.81,2,0,10,0.00
2013-5-25,72.5,51.0,34.3,47.6,39.5,34.0,100,71,36,30.08,29.96,2,0,8,0.00
2013-5-26,75.6,53.9,36.5,48.5,39.9,36.2,100,66,34,30.03,29.93,2,0,8,0.00
2013-5-27,66.2,52.1,37.0,55.0,44.6,35.3,100,80,39,29.96,29.72,1,0,4,0.30
2013-5-28,70.9,59.2,51.1,70.6,58.9,50.8,99,99,99,29.73,29.50,0,0,3,1.76
2013-5-29,91.0,73.3,63.0,76.4,70.2,62.7,100,92,58,29.68,29.43,2,0,8,0.04
2013-5-30,89.1,71.5,60.6,80.8,69.6,60.3,99,95,68,29.76,29.67,3,0,7,0.04
2013-5-31,83.8,72.1,63.5,80.7,71.0,63.2,100,97,80,29.69,29.55,4,0,12,0.39
2013-6-1,84.4,72.4,64.6,75.8,69.7,64.3,100,92,70,29.57,29.37,2,0,5,0.01
2013-6-2,78.8,66.9,55.0,68.1,62.3,49.6,100,86,61,29.66,29.34,3,1,8,0.00
2013-6-3,79.5,58.4,44.4,53.9,46.6,41.1,100,69,36,29.76,29.65,2,0,7,0.00
2013-6-4,79.5,59.5,46.4,56.6,48.0,37.4,100,70,42,29.89,29.75,1,0,3,0.00
2013-6-5,81.1,61.5,46.9,57.5,49.1,38.1,96,67,39,29.88,29.68,1,0,3,0.00
2013-6-6,71.1,60.1,55.9,60.1,53.0,46.8,96,78,65,29.70,29.55,2,0,6,0.00
2013-6-7,61.9,56.9,51.4,59.3,55.9,51.2,100,97,89,29.61,29.55,0,0,2,0.00
2013-6-8,79.3,63.5,56.5,63.6,58.4,56.2,100,85,54,29.78,29.58,1,0,3,0.00
2013-6-9,78.3,65.7,52.3,63.7,58.3,52.1,100,80,57,29.83,29.66,1,0,6,0.00
2013-6-10,70.5,64.8,59.5,70.2,63.8,55.6,99,97,69,29.66,29.43,0,0,2,0.01
2013-6-11,86.7,71.4,63.0,74.8,68.8,62.7,100,92,65,29.57,29.43,3,0,8,0.00
2013-6-12,77.4,69.0,60.4,75.6,68.5,60.2,100,99,89,29.62,29.38,0,0,2,0.00
2013-6-13,83.7,69.3,59.5,68.4,63.5,59.3,100,84,52,29.61,29.27,2,0,5,0.01
2013-6-14,84.9,67.2,56.5,63.9,59.8,56.0,100,80,47,29.76,29.60,1,0,8,0.00
2013-6-15,80.1,66.3,52.0,73.5,63.0,51.7,100,90,63,29.77,29.59,0,0,2,0.00
2013-6-16,90.0,73.1,64.9,74.7,67.6,62.0,99,85,54,29.60,29.43,2,0,8,0.01
2013-6-17,93.4,70.0,59.2,71.7,63.9,58.9,100,84,45,29.64,29.52,2,0,8,0.00
2013-6-18,77.7,63.2,53.8,63.4,55.8,46.4,100,80,50,29.77,29.59,1,0,5,0.00
2013-6-19,87.3,63.8,48.2,60.4,52.0,45.4,100,70,38,29.87,29.75,0,0,3,0.00
2013-6-20,89.8,67.6,50.5,66.8,58.8,50.3,100,78,43,29.91,29.83,0,0,4,0.00
2013-6-21,87.1,71.6,55.4,77.7,66.9,55.1,100,86,65,29.91,29.73,0,0,1,0.00
2013-6-22,96.6,76.7,64.4,84.1,73.6,64.1,100,91,66,29.79,29.66,1,0,4,0.00
2013-6-23,98.4,80.9,68.7,81.9,75.0,68.4,100,85,53,29.75,29.64,1,0,4,0.00
2013-6-24,98.6,80.4,68.9,81.9,75.2,68.4,100,86,54,29.75,29.58,1,0,5,0.05
2013-6-25,91.9,74.6,67.3,81.1,72.6,67.0,99,94,68,29.66,29.50,2,0,6,0.02
2013-6-26,98.2,77.7,66.4,80.4,73.8,66.1,100,90,56,29.54,29.43,0,0,4,0.00
2013-6-27,86.5,74.0,66.4,79.2,72.4,66.1,99,95,68,29.44,29.31,0,0,2,3.08
2013-6-28,78.8,68.6,64.0,75.2,67.8,63.8,100,97,79,29.34,29.21,1,0,4,0.74
2013-6-29,78.4,68.5,61.5,70.1,65.9,61.2,100,92,67,29.43,29.22,1,0,4,0.01
2013-6-30,83.5,68.8,59.2,69.5,62.8,50.7,100,83,58,29.64,29.42,1,0,4,0.00
2013-7-1,70.5,64.7,60.4,66.0,60.4,52.3,100,87,70,29.75,29.62,1,0,5,0.01
2013-7-2,78.1,68.0,61.7,71.4,65.4,61.3,100,92,76,29.78,29.70,0,0,2,0.00
2013-7-3,90.0,72.0,60.1,79.1,69.2,59.8,100,92,62,29.79,29.72,0,0,2,0.00
2013-7-4,89.6,76.6,69.3,78.1,72.7,69.0,100,89,58,29.82,29.75,1,0,4,0.00
2013-7-5,94.1,75.9,52.9,79.5,72.6,47.9,100,91,51,29.80,29.54,0,0,4,0.00
2013-7-6,89.8,76.0,52.5,80.0,73.6,48.4,100,93,71,29.94,29.57,0,0,2,8.08
2013-7-7,89.1,76.4,70.9,80.4,74.6,70.6,100,95,71,29.85,29.76,1,0,4,0.04
2013-7-8,87.1,74.7,69.3,83.9,73.9,69.0,100,98,85,29.85,29.77,1,0,7,1.12
2013-7-9,97.7,78.4,70.7,83.5,75.7,70.4,100,93,60,29.81,29.67,1,0,7,0.01
2013-7-10,90.5,78.7,67.8,83.9,75.3,64.3,99,90,68,29.77,29.57,2,0,9,1.00
2013-7-11,86.0,69.4,61.0,68.6,63.7,60.7,100,84,51,29.90,29.76,1,0,5,0.00
2013-7-12,91.2,70.0,56.8,71.7,64.7,56.6,100,85,52,29.99,29.90,0,0,3,0.00
2013-7-13,95.4,74.1,60.8,74.6,67.4,60.5,100,83,51,30.06,29.97,0,0,2,0.00
2013-7-14,98.8,78.3,65.5,83.0,74.1,65.2,100,89,57,30.09,30.02,0,0,3,0.00
2013-7-15,98.6,79.1,70.2,88.9,77.2,69.9,100,95,66,30.14,30.04,0,0,1,3.13
2013-7-16,101.5,81.9,73.4,90.3,80.6,73.1,100,96,66,30.14,30.03,0,0,0,0.00
2013-7-17,102.6,84.9,73.6,88.1,81.4,73.1,100,91,60,30.10,29.94,1,0,4,0.00
2013-7-18,100.8,84.1,74.3,90.5,81.3,74.0,100,92,70,29.97,29.76,0,0,2,0.00
2013-7-19,99.5,83.7,74.8,84.6,79.8,73.5,100,90,57,29.78,29.52,2,0,9,0.08
2013-7-20,94.5,77.7,69.1,76.0,70.9,67.1,100,83,47,29.78,29.55,0,0,4,2.03
2013-7-21,92.3,73.0,63.3,73.4,67.0,60.1,100,83,53,29.84,29.75,0,0,2,0.00
2013-7-22,90.5,74.4,64.9,78.1,71.1,64.7,100,91,58,29.80,29.59,0,0,2,0.00
2013-7-23,79.9,67.8,52.5,77.6,67.0,47.9,99,97,75,30.09,29.51,0,0,1,15.84
2013-7-24,79.2,64.3,55.6,62.3,57.2,53.6,100,80,54,30.27,30.09,1,0,6,0.00
2013-7-25,88.7,65.5,50.9,66.6,58.5,50.6,100,82,44,30.33,30.26,0,0,3,0.00
2013-7-26,87.6,69.8,56.3,69.4,64.0,56.0,100,84,51,30.32,30.13,0,0,3,0.00
2013-7-27,78.1,67.4,58.5,76.7,67.0,58.0,100,99,88,30.14,29.95,1,0,8,0.07
2013-7-28,74.1,59.6,51.6,67.9,58.1,51.3,100,95,71,30.19,30.03,1,0,4,0.09
2013-7-29,77.2,63.0,56.5,64.9,60.4,56.2,100,92,65,30.39,30.17,0,0,3,0.00
2013-7-30,89.1,67.3,53.1,71.1,62.1,52.8,100,86,53,30.45,30.35,0,0,1,0.01
2013-7-31,73.9,67.3,61.2,73.6,67.0,60.9,99,99,99,30.36,30.07,0,0,0,0.39
2013-8-1,84.2,69.3,63.1,71.7,65.8,62.9,100,90,57,30.13,30.07,1,0,6,0.00
2013-8-2,78.3,67.0,56.7,70.0,65.0,56.4,100,94,71,30.15,30.04,1,0,4,0.00
2013-8-3,85.1,69.6,57.7,67.9,63.3,57.5,100,83,49,30.27,30.09,1,0,7,0.00
2013-8-4,81.0,64.8,55.4,65.6,59.7,55.1,100,86,56,30.37,30.26,1,0,8,0.00
2013-8-5,75.2,63.1,53.1,67.8,59.9,52.8,100,90,61,30.34,30.19,0,0,2,0.00
2013-8-11,86.0,69.9,59.0,70.7,65.8,58.7,99,88,60,30.34,30.25,0,0,0,0.00
2013-8-12,71.6,66.9,63.5,71.3,66.6,63.2,99,99,99,30.26,30.05,0,0,0,0.26
2013-8-13,69.6,62.8,55.4,64.5,58.3,52.7,99,86,62,30.24,30.02,0,0,0,0.02
2013-8-14,80.4,61.5,51.8,61.6,56.1,51.5,99,85,50,30.36,30.25,0,0,0,0.01
2013-8-15,79.3,63.4,50.7,62.3,56.6,50.4,99,81,51,30.38,30.30,1,0,1,0.01
2013-8-16,86.4,66.1,53.4,66.5,60.5,53.1,99,85,47,30.43,30.32,1,0,1,0.01
2013-8-17,89.8,67.3,52.9,69.2,61.4,52.6,99,84,50,30.49,30.40,1,0,1,0.00
2013-8-18,93.0,70.9,56.8,71.8,63.8,56.6,100,82,45,30.45,30.32,0,0,2,0.01
2013-8-19,94.3,71.0,57.7,71.1,63.8,57.5,100,82,36,30.35,30.24,0,0,2,0.01
2013-8-20,95.0,72.7,59.2,75.4,67.6,58.9,100,87,51,30.36,30.27,0,0,2,0.00
2013-8-21,93.4,75.6,63.7,77.5,71.3,63.4,100,88,59,30.36,30.20,0,0,4,0.00
2013-8-22,88.7,76.8,69.1,77.2,72.8,68.8,100,89,65,30.26,30.16,0,0,4,0.00
2013-8-23,89.6,70.7,60.4,69.7,63.1,56.6,100,80,47,30.43,30.25,0,0,4,0.00
2013-8-24,90.5,68.3,54.7,71.3,62.8,54.4,100,85,50,30.53,30.42,0,0,2,0.00
2013-8-25,96.3,73.3,55.9,74.2,66.2,55.7,99,82,49,30.52,30.34,0,0,3,0.00
2013-8-26,91.8,79.7,70.2,81.2,75.1,69.1,100,87,68,30.37,30.17,1,0,4,0.00
2013-8-27,82.9,76.1,70.2,82.6,75.8,69.9,99,99,99,30.20,30.05,2,0,8,0.51
2013-8-28,91.6,77.4,71.1,82.1,76.0,70.8,100,96,68,30.23,29.98,0,0,1,0.00
2013-8-29,97.5,77.0,66.9,82.3,73.6,66.6,100,91,58,30.29,30.22,0,0,1,0.00
2013-8-30,95.2,76.9,65.7,80.6,73.4,65.2,100,90,62,30.23,29.96,0,0,2,1.70
2013-8-31,79.7,74.2,69.4,76.9,73.0,69.1,100,96,85,30.06,29.96,0,0,2,0.00
2013-9-1,83.8,74.9,63.9,80.9,74.3,63.6,99,98,90,29.94,29.80,0,0,0,0.00
2013-9-2,79.3,69.5,61.9,70.5,66.8,58.8,100,92,71,29.98,29.78,1,0,5,0.00
2013-9-3,82.6,64.9,58.1,65.5,60.5,57.8,100,88,56,30.08,29.96,1,0,4,0.00
2013-9-4,89.6,68.2,53.8,71.5,63.7,53.5,99,88,55,30.15,30.05,2,0,7,0.00
2013-9-5,78.6,62.8,50.7,65.5,57.1,50.4,100,84,50,30.34,30.14,0,0,3,0.00
2013-9-6,85.5,60.1,45.5,60.2,50.8,44.3,99,78,30,30.36,30.14,0,0,1,0.00
2013-9-7,81.5,67.2,54.0,76.7,66.2,53.5,100,97,78,30.14,29.96,0,0,2,0.00
2013-9-8,76.8,67.7,54.9,72.7,62.8,54.6,100,86,57,30.18,29.98,1,0,3,0.00
2013-9-9,81.3,64.4,51.8,77.3,63.9,51.5,100,98,86,30.16,29.98,0,0,1,0.00
2013-9-10,100.4,80.5,67.3,83.2,75.3,67.0,100,87,51,30.09,29.95,1,0,3,0.00
2013-9-11,97.5,77.6,68.4,85.4,74.8,68.1,100,92,67,30.11,29.96,2,0,14,0.65
2013-9-12,83.3,68.5,56.1,70.4,65.4,55.8,99,91,58,30.02,29.90,1,0,4,0.28
2013-9-13,63.1,54.4,43.9,56.4,51.7,43.6,100,91,65,30.21,30.01,1,0,9,0.00
2013-9-14,76.6,53.7,40.6,53.3,47.5,40.2,100,83,41,30.25,30.14,0,0,2,0.00
2013-9-15,64.8,55.7,48.6,62.5,54.8,48.3,100,97,83,30.19,30.13,0,0,0,0.01
2013-9-16,65.7,55.8,45.3,57.8,52.3,45.1,100,89,60,30.45,30.18,0,0,4,0.02
2013-9-17,75.6,52.4,40.5,59.2,48.4,40.2,100,88,47,30.49,30.30,0,0,2,0.00
2013-9-18,84.6,58.9,44.2,66.4,55.1,44.0,100,90,52,30.30,30.11,0,0,1,0.00
2013-9-19,81.0,66.7,54.3,77.7,66.0,54.0,100,98,86,30.14,30.00,0,0,2,0.00
2013-9-20,83.8,71.3,67.8,82.8,71.0,67.5,99,99,94,30.00,29.80,0,0,2,0.99
2013-9-21,73.4,63.3,54.5,67.9,61.7,51.2,100,95,76,29.94,29.73,1,0,5,0.11
2013-9-22,60.3,52.8,44.8,52.4,49.2,44.3,100,88,70,30.16,29.93,1,0,5,0.00
2013-9-23,67.5,51.1,43.5,52.7,47.8,43.3,100,90,58,30.27,30.16,0,0,2,0.00
2013-9-24,74.1,53.0,41.2,57.6,49.7,40.9,100,90,55,30.24,30.07,0,0,1,0.00
2013-9-25,72.0,55.1,43.5,62.6,52.0,43.3,100,91,58,30.10,30.02,0,0,2,0.00
2013-9-26,81.5,58.4,46.8,61.8,53.2,46.5,100,86,47,30.23,30.06,0,0,2,0.00
2013-9-27,78.8,59.4,47.1,66.1,56.5,46.9,100,91,66,30.33,30.22,0,0,2,0.00
2013-9-28,78.3,63.1,54.0,69.9,60.5,53.7,100,92,60,30.29,30.10,0,0,2,0.00
2013-9-29,63.9,59.4,54.9,63.6,59.1,54.6,99,99,99,30.11,30.03,0,0,0,0.22
2013-9-30,72.0,61.3,53.4,65.1,59.6,53.1,100,95,70,30.09,30.00,0,0,2,0.00
2013-10-1,73.0,61.1,51.6,71.2,60.7,51.3,100,99,91,30.09,30.00,1,0,4,0.00
2013-10-2,80.1,64.7,54.0,65.9,58.7,52.2,99,84,45,30.16,30.01,0,0,2,0.00
2013-10-3,81.3,65.1,52.3,76.8,64.1,52.1,100,97,86,30.15,30.00,0,0,1,0.01
2013-10-4,80.8,70.8,63.5,77.5,69.9,63.2,100,97,85,30.11,30.02,0,0,2,0.00
2013-10-5,75.4,67.9,63.9,75.1,67.6,63.6,99,99,99,30.13,29.96,0,0,1,0.17
2013-10-6,72.5,66.9,55.9,72.2,66.6,55.7,99,99,99,29.96,29.70,0,0,2,0.09
2013-10-7,59.2,53.2,46.8,58.9,52.6,46.3,100,98,90,30.18,29.74,1,0,5,0.02
2013-10-8,67.5,52.5,42.3,57.7,49.3,42.0,100,91,59,30.36,30.17,0,0,2,0.00
2013-10-9,70.0,53.4,41.9,62.9,49.8,41.6,99,89,56,30.40,30.30,0,0,2,0.00
2013-10-10,71.6,53.5,42.4,61.4,49.3,42.2,100,88,54,30.32,30.21,0,0,1,0.00
2013-10-11,72.5,53.7,41.4,56.0,49.2,41.1,100,87,47,30.24,30.15,0,0,1,0.00
2013-10-12,76.5,59.9,46.4,68.3,57.8,46.1,100,94,61,30.19,30.11,0,0,1,0.00
2013-10-13,70.9,59.4,47.8,60.3,52.4,43.4,100,81,43,30.42,30.16,1,0,4,0.00
2013-10-14,66.4,52.0,43.3,52.5,48.2,43.1,100,88,58,30.48,30.34,0,0,2,0.00
2013-10-15,66.7,53.2,39.6,65.1,52.9,39.3,100,99,92,30.35,29.89,0,0,1,0.01
2013-10-16,65.7,58.5,53.4,62.0,56.3,51.7,100,93,68,29.97,29.87,1,0,4,0.06
2013-10-17,54.9,52.0,47.8,54.6,51.7,47.6,99,99,99,29.97,29.82,1,0,1,0.13
2013-10-18,63.9,51.2,42.8,54.2,47.4,42.5,100,88,59,29.98,29.88,0,0,2,0.00
2013-10-19,51.4,45.7,42.1,50.6,45.3,41.8,100,99,88,29.96,29.79,0,0,2,0.08
2013-10-20,60.3,47.7,38.5,50.6,44.8,38.2,100,91,65,29.98,29.89,0,0,1,0.00
2013-11-1,60.3,52.0,47.3,60.0,50.0,46.0,99,93,75,29.72,29.18,2,0,2,0.01
2013-11-2,49.3,44.1,35.6,49.0,43.8,35.3,100,99,99,30.15,29.70,0,0,0,0.20
2013-11-3,48.6,36.9,30.9,39.6,34.8,30.7,99,93,71,30.51,30.16,0,0,0,0.00
2013-11-4,50.0,39.2,28.6,42.2,34.9,28.3,99,86,58,30.55,30.37,1,0,1,0.00
2013-11-5,55.6,48.1,37.6,52.2,47.0,37.3,100,96,84,30.41,30.24,0,0,0,0.00
2013-11-6,56.1,52.5,43.7,55.8,51.5,43.4,99,96,85,30.22,29.88,2,0,2,0.14
2013-11-7,44.4,39.4,35.2,42.9,35.4,31.6,99,86,64,30.17,30.03,2,0,4,0.01
2013-11-8,49.3,35.6,28.4,35.6,31.2,28.2,100,86,53,30.33,30.15,1,0,2,0.00
2013-11-9,59.0,47.2,33.1,47.2,41.0,32.8,100,81,59,30.25,29.83,2,0,7,0.00
2013-11-10,50.2,42.6,30.4,41.5,36.0,30.1,99,78,61,30.32,29.93,3,1,12,0.05
2013-11-11,43.3,36.6,28.4,43.1,35.4,26.1,100,95,87,30.35,30.06,1,0,5,0.15
2013-11-12,35.8,28.6,23.0,26.7,22.2,16.7,95,78,59,30.58,30.34,2,0,11,0.01
2013-11-13,45.1,30.8,18.5,29.5,22.0,14.6,100,74,38,30.58,30.18,2,0,10,0.00
2013-11-14,52.5,39.9,28.6,33.3,27.0,21.3,82,62,46,30.20,30.02,2,0,9,0.00
2013-11-15,54.9,44.0,34.9,35.8,31.9,27.9,90,64,47,30.12,30.04,1,0,3,0.00
2013-11-16,55.6,43.9,28.2,55.3,43.4,28.0,100,98,90,30.17,29.88,1,0,8,0.00
2013-11-17,62.4,56.8,48.4,62.0,56.3,46.4,100,98,86,29.88,29.28,10,1,19,0.56
2013-11-18,48.7,41.5,35.8,47.6,35.7,27.2,97,80,71,30.16,29.48,9,4,18,0.00
2013-11-19,45.5,34.9,25.0,29.5,26.9,24.5,100,74,53,30.47,30.16,4,1,11,0.00
2013-11-20,48.6,33.0,22.8,40.3,30.3,22.6,100,91,59,30.51,30.30,2,0,9,0.00
2013-11-21,50.0,43.2,33.6,48.7,42.0,33.4,100,96,80,30.35,30.22,1,0,4,0.19
2013-11-22,46.0,39.8,25.7,45.8,39.4,25.5,100,98,93,30.40,30.17,5,0,11,0.08
2013-11-23,27.0,24.9,23.5,26.5,24.6,23.3,99,99,99,30.40,30.29,2,0,4,0.00
2013-11-26,69.6,62.8,52.5,67.9,62.3,52.2,99,98,93,29.92,29.51,1,0,1,0.00
2013-11-27,64.6,53.6,47.7,64.3,51.0,44.9,99,91,80,29.89,29.44,8,2,8,0.00
2013-11-28,58.5,47.7,35.1,45.8,40.9,34.8,99,79,52,30.00,29.80,1,0,1,0.00
2013-11-29,71.8,56.9,46.2,58.5,52.0,45.0,99,86,56,29.81,29.62,1,0,1,0.00
2013-11-30,65.3,57.9,52.7,59.2,52.9,41.1,99,85,52,29.66,29.44,1,0,1,0.00
2013-12-1,61.0,51.0,43.3,52.3,46.5,42.0,100,86,57,29.69,29.58,1,0,1,0.00
2013-12-2,54.1,47.7,24.3,49.9,46.0,24.0,99,94,81,29.91,29.61,3,0,3,0.00
2013-12-3,37.9,32.9,22.6,37.7,32.6,22.2,100,99,94,29.92,29.84,1,0,8,0.01
2013-12-4,55.4,44.0,35.6,55.1,43.7,35.3,99,99,99,29.91,29.62,1,0,7,0.00
2013-12-5,58.1,44.8,31.6,57.8,40.2,25.1,100,84,69,30.13,29.60,7,2,13,0.00
2013-12-6,31.6,26.9,20.1,25.9,20.2,15.2,82,75,68,30.37,30.09,3,1,11,0.00
2013-12-7,29.5,19.9,12.2,17.5,12.3,9.9,92,73,52,30.58,30.36,5,1,14,0.00
2013-12-8,28.0,19.6,10.9,27.8,16.8,9.9,100,89,70,30.57,29.98,3,0,9,0.00
2013-12-9,30.6,27.7,20.8,30.1,25.7,16.4,100,92,80,30.07,29.83,7,2,11,0.00
2013-12-10,24.6,19.3,12.6,21.6,13.2,6.5,100,77,52,30.15,29.91,7,2,14,0.00
2013-12-11,27.0,18.5,7.2,22.5,14.5,2.9,100,84,72,30.42,30.13,4,1,10,0.00
2013-12-12,22.1,13.8,4.5,15.0,8.9,0.9,97,81,58,30.42,30.13,6,1,10,0.00
2013-12-13,28.0,24.0,18.9,24.3,20.7,13.0,96,87,77,30.29,30.10,6,0,11,0.00
2013-12-14,22.3,18.6,16.0,22.0,17.4,12.6,100,95,75,30.29,29.78,8,2,13,0.00
2013-12-15,27.1,19.6,9.0,26.9,17.6,6.7,99,92,75,30.00,29.75,6,1,13,0.00
2013-12-16,29.1,13.8,7.3,16.0,9.8,6.5,100,86,50,30.15,29.98,3,0,8,0.00
2013-12-17,29.5,21.7,13.3,27.8,21.2,12.9,100,98,91,29.98,29.84,2,0,6,0.00
2013-12-18,32.9,25.3,16.9,30.1,23.6,16.7,100,93,79,30.08,29.88,3,0,8,0.00
2013-12-19,43.2,32.5,21.6,38.4,30.2,19.5,100,91,78,29.98,29.83,1,0,8,0.00
2013-12-20,35.2,33.7,32.7,35.0,33.4,32.5,99,99,99,29.92,29.72,0,0,4,0.45
2013-12-21,34.7,33.4,32.5,34.5,33.2,32.3,99,99,99,29.86,29.67,1,0,2,0.72
2013-12-22,38.1,34.2,32.5,37.9,34.0,32.3,99,99,99,29.94,29.55,2,0,8,0.34
2013-12-23,32.5,28.9,23.0,32.3,28.1,20.8,100,97,87,30.27,29.93,0,0,0,0.00
2013-12-24,23.0,14.6,5.9,21.1,11.8,5.7,100,89,69,30.53,30.25,0,0,0,0.00
2013-12-25,24.8,19.3,5.4,24.6,19.0,5.1,100,99,92,30.48,30.08,0,0,0,0.00
2013-12-26,32.2,25.8,23.4,28.0,23.8,18.9,100,92,66,30.26,28.69,0,0,0,0.00
2013-12-27,43.2,32.5,24.6,37.4,31.5,24.4,100,96,79,30.29,30.02,3,0,8,0.08
2013-12-28,53.1,39.0,27.3,43.0,36.6,27.1,100,92,67,30.09,29.88,2,0,7,0.00
2013-12-29,45.5,34.6,21.0,37.7,32.6,18.0,100,93,72,29.98,29.67,7,1,9,0.00
2013-12-30,22.8,18.7,14.9,18.7,12.0,7.8,92,75,58,30.25,29.98,3,0,8,0.00
2013-12-31,23.4,17.8,13.8,20.2,14.0,8.4,100,85,63,30.29,30.01,6,1,11,0.00
2014-1-1,16.2,13.4,10.6,15.9,10.4,3.9,100,88,68,30.38,30.22,1,0,4,0.00
2014-1-2,14.9,11.8,2.5,14.5,10.5,-1.6,100,94,82,30.23,30.06,9,4,14,0.00